Wilmore, Kentucky
Current Conditions -  °F | °C
As of 6:54 PM on Wednesday 22 Oct 2014 (Local Time) from KLEX Reporting Station
Overcast Overcast  
Wind Chill: 54°   Ceiling: 3300
Heat Index: 54°   Visibility: 10mi
Dew Point: 42°   Wind: 5mph
Humidity: 64%   Direction: 40°NE
Pressure: 30.24"   Gusts: NA
Location:  37.86°N, 84.66°W
Report Text: KLEX 222254Z 04004KT 10SM OVC033 12/06 A3024 RMK AO2 SLP243 T01220056
Loading
Personal Weather Stations






























Interactive Weather Map
Tropical Storm Tracking
New forecast layout! Learn more

10-Day Weather Forecast

Advertisements
Track Severe Weather on mobile